createdAt,value
2018-11-26T00:01:48.069Z,6.33
2018-11-26T00:04:20.659Z,5.63
2018-11-26T00:06:52.817Z,6.50
2018-11-26T00:09:25.180Z,4.30
2018-11-26T00:11:57.541Z,4.80
2018-11-26T00:14:29.944Z,4.40
2018-11-26T00:17:03.438Z,4.23
2018-11-26T00:19:35.911Z,5.00
2018-11-26T00:22:07.953Z,4.07
2018-11-26T00:24:40.358Z,4.87
2018-11-26T00:27:12.755Z,3.90
2018-11-26T00:29:45.109Z,7.17
2018-11-26T00:32:17.453Z,7.67
2018-11-26T00:34:49.820Z,9.43
2018-11-26T00:37:22.150Z,13.50
2018-11-26T00:39:54.195Z,14.90
2018-11-26T00:42:26.808Z,14.53
2018-11-26T00:44:59.118Z,10.87
2018-11-26T00:47:31.225Z,4.10
2018-11-26T00:50:03.376Z,4.17
2018-11-26T00:52:35.401Z,5.23
2018-11-26T00:57:47.889Z,9.83
2018-11-26T01:00:21.666Z,4.63
2018-11-26T01:02:54.656Z,6.07
2018-11-26T01:05:42.865Z,7.20
2018-11-26T01:08:15.242Z,9.83
2018-11-26T01:10:47.402Z,8.73
2018-11-26T01:13:19.926Z,7.70
2018-11-26T01:15:52.148Z,5.30
2018-11-26T01:18:24.822Z,4.27
2018-11-26T01:20:57.109Z,5.57
2018-11-26T01:23:29.508Z,4.93
2018-11-26T01:26:01.996Z,4.70
2018-11-26T01:28:34.648Z,7.43
2018-11-26T01:31:08.013Z,8.53
2018-11-26T01:33:41.163Z,5.90
2018-11-26T01:36:14.135Z,7.60
2018-11-26T01:38:46.750Z,4.43
2018-11-26T01:41:19.539Z,8.83
2018-11-26T01:43:52.052Z,6.20
2018-11-26T01:46:25.343Z,4.47
2018-11-26T01:48:57.691Z,4.17
2018-11-26T01:51:30.218Z,5.23
2018-11-26T01:54:02.451Z,13.80
2018-11-26T01:56:34.934Z,8.10
2018-11-26T01:59:07.426Z,35.97
2018-11-26T02:01:39.834Z,10.23
2018-11-26T02:04:12.288Z,12.93
2018-11-26T02:06:44.702Z,7.53
2018-11-26T02:09:17.327Z,7.37
2018-11-26T02:11:49.691Z,11.23
2018-11-26T02:14:22.089Z,5.20
2018-11-26T02:16:54.300Z,7.00
2018-11-26T02:19:26.853Z,7.73
2018-11-26T02:21:59.417Z,6.20
2018-11-26T02:24:31.585Z,12.87
2018-11-26T02:27:03.960Z,4.57
2018-11-26T02:29:36.394Z,4.20
2018-11-26T02:32:09.326Z,5.20
2018-11-26T02:34:41.674Z,6.03
2018-11-26T02:37:14.241Z,5.73
2018-11-26T02:39:46.616Z,8.90
2018-11-26T02:42:19.219Z,7.30
2018-11-26T02:44:51.555Z,6.67
2018-11-26T02:47:23.989Z,19.40
2018-11-26T02:49:56.529Z,17.20
2018-11-26T02:52:29.014Z,12.17
2018-11-26T02:55:01.149Z,11.23
2018-11-26T02:57:33.532Z,8.80
2018-11-26T03:00:05.744Z,29.20
2018-11-26T03:02:38.194Z,20.85
2018-11-26T03:05:11.653Z,32.47
2018-11-26T03:07:44.315Z,22.73
2018-11-26T03:10:17.504Z,32.10
2018-11-26T03:12:49.933Z,34.73
2018-11-26T03:15:22.005Z,37.13
2018-11-26T03:17:55.394Z,39.08
2018-11-26T03:20:28.199Z,31.30
2018-11-26T03:23:00.702Z,34.10
2018-11-26T03:25:33.133Z,42.75
2018-11-26T03:28:05.521Z,44.30
2018-11-26T03:30:38.096Z,44.48
2018-11-26T03:33:10.080Z,37.90
2018-11-26T03:35:42.388Z,38.60
2018-11-26T03:38:17.760Z,54.27
2018-11-26T03:40:50.082Z,44.00
2018-11-26T03:43:22.223Z,41.13
2018-11-26T03:45:54.561Z,60.08
2018-11-26T03:48:27.395Z,78.83
2018-11-26T03:51:00.207Z,91.97
2018-11-26T03:53:32.142Z,38.00
2018-11-26T03:56:04.298Z,54.93
2018-11-26T03:58:37.219Z,46.80
2018-11-26T04:01:09.955Z,40.55
2018-11-26T04:03:42.764Z,27.02
2018-11-26T04:06:15.311Z,32.83
2018-11-26T04:08:48.119Z,27.87
2018-11-26T04:11:21.054Z,24.37
2018-11-26T04:13:53.940Z,23.25
2018-11-26T04:16:26.019Z,28.42
2018-11-26T04:18:58.428Z,25.30
2018-11-26T04:21:31.550Z,22.02
2018-11-26T04:24:04.001Z,22.50
2018-11-26T04:26:36.652Z,21.52
2018-11-26T04:29:09.127Z,20.95
2018-11-26T04:31:42.108Z,19.95
2018-11-26T04:34:14.511Z,19.02
2018-11-26T04:36:46.520Z,17.87
2018-11-26T04:39:19.691Z,19.75
2018-11-26T04:41:52.611Z,19.77
2018-11-26T04:44:25.346Z,18.25
2018-11-26T04:46:57.692Z,10.82
2018-11-26T04:49:30.324Z,12.75
2018-11-26T04:52:03.298Z,5.05
2018-11-26T04:54:35.739Z,7.25
2018-11-26T04:57:08.216Z,4.83
2018-11-26T04:59:41.037Z,4.87
2018-11-26T05:02:16.401Z,5.20
2018-11-26T05:04:49.489Z,4.77
2018-11-26T05:07:21.875Z,5.20
2018-11-26T05:09:54.287Z,6.70
2018-11-26T05:12:26.422Z,4.90
2018-11-26T05:14:59.383Z,4.70
2018-11-26T05:17:31.551Z,4.07
2018-11-26T05:20:04.019Z,4.83
2018-11-26T05:22:36.261Z,3.77
2018-11-26T05:25:09.548Z,5.93
2018-11-26T05:27:41.778Z,4.20
2018-11-26T05:30:16.558Z,5.87
2018-11-26T05:32:49.352Z,4.00
2018-11-26T05:35:21.920Z,4.00
2018-11-26T05:37:54.278Z,5.50
2018-11-26T05:40:26.603Z,4.77
2018-11-26T05:42:59.035Z,4.53
2018-11-26T05:45:31.412Z,5.60
2018-11-26T05:48:03.893Z,4.20
2018-11-26T05:50:36.049Z,4.27
2018-11-26T05:53:08.628Z,4.65
2018-11-26T05:55:41.458Z,6.97
2018-11-26T05:58:14.042Z,5.50
2018-11-26T06:00:47.614Z,4.50
2018-11-26T06:03:20.119Z,4.50
2018-11-26T06:05:52.593Z,4.60
2018-11-26T06:08:24.427Z,5.27
2018-11-26T06:10:57.275Z,5.43
2018-11-26T06:13:30.443Z,4.13
2018-11-26T06:16:02.843Z,4.43
2018-11-26T06:18:35.177Z,6.08
2018-11-26T06:21:08.090Z,4.90
2018-11-26T06:23:40.866Z,4.80
2018-11-26T06:26:13.224Z,5.93
2018-11-26T06:28:45.239Z,5.80
2018-11-26T06:31:17.672Z,4.60
2018-11-26T06:33:50.275Z,4.40
2018-11-26T06:36:23.955Z,4.37
2018-11-26T06:38:56.442Z,4.27
2018-11-26T06:41:28.847Z,5.85
2018-11-26T06:44:01.679Z,5.37
2018-11-26T06:46:34.189Z,5.03
2018-11-26T06:49:07.051Z,4.87
2018-11-26T06:51:40.062Z,4.27
2018-11-26T06:54:12.782Z,5.65
2018-11-26T06:56:45.137Z,5.60
2018-11-26T06:59:17.665Z,5.40
2018-11-26T07:01:50.118Z,5.37
2018-11-26T07:04:22.415Z,4.93
2018-11-26T07:06:54.676Z,7.37
2018-11-26T07:09:27.104Z,6.80
2018-11-26T07:11:59.250Z,7.63
2018-11-26T07:14:31.783Z,4.90
2018-11-26T07:17:04.621Z,6.00
2018-11-26T07:19:37.043Z,5.00
2018-11-26T07:22:09.167Z,6.10
2018-11-26T07:24:41.515Z,5.10
2018-11-26T07:27:13.750Z,4.93
2018-11-26T07:29:46.191Z,4.60
2018-11-26T07:32:18.574Z,5.03
2018-11-26T07:34:50.870Z,5.35
2018-11-26T07:37:23.528Z,5.50
2018-11-26T07:39:55.918Z,3.87
2018-11-26T07:42:28.552Z,4.77
2018-11-26T07:45:01.321Z,5.07
2018-11-26T07:47:33.914Z,5.53
2018-11-26T07:50:06.833Z,4.83
2018-11-26T07:52:39.398Z,6.00
2018-11-26T07:55:13.194Z,4.00
2018-11-26T07:57:45.598Z,4.58
2018-11-26T08:00:18.658Z,5.25
2018-11-26T08:02:51.853Z,5.13
2018-11-26T08:05:25.771Z,5.33
2018-11-26T08:07:58.546Z,4.50
2018-11-26T08:10:31.022Z,6.87
2018-11-26T08:13:03.412Z,7.45
2018-11-26T08:15:35.964Z,5.90
2018-11-26T08:18:08.769Z,5.05
2018-11-26T08:20:41.287Z,5.40
2018-11-26T08:23:13.621Z,5.83
2018-11-26T08:25:45.974Z,5.95
2018-11-26T08:28:18.422Z,3.83
2018-11-26T08:30:50.796Z,4.08
2018-11-26T08:33:23.084Z,6.35
2018-11-26T08:36:00.209Z,4.67
2018-11-26T08:38:37.163Z,5.65
2018-11-26T08:41:14.575Z,4.72
2018-11-26T08:43:51.703Z,6.03
2018-11-26T08:46:29.137Z,4.83
2018-11-26T08:49:04.137Z,4.70
2018-11-26T08:51:37.133Z,6.30
2018-11-26T08:54:10.414Z,4.50
2018-11-26T08:56:42.568Z,6.10
2018-11-26T08:59:15.417Z,6.03
2018-11-26T09:01:52.618Z,4.60
2018-11-26T09:04:29.350Z,4.30
2018-11-26T09:07:01.835Z,4.30
2018-11-26T09:09:34.656Z,5.50
2018-11-26T09:12:07.219Z,4.72
2018-11-26T09:14:39.467Z,5.10
2018-11-26T09:17:12.863Z,4.87
2018-11-26T09:19:46.067Z,5.33
2018-11-26T09:22:18.619Z,8.20
2018-11-26T09:24:51.386Z,5.28
2018-11-26T09:27:23.538Z,4.40
2018-11-26T09:29:55.971Z,4.90
2018-11-26T09:32:28.487Z,5.00
2018-11-26T09:35:01.408Z,5.45
2018-11-26T09:37:33.847Z,5.70
2018-11-26T09:40:06.599Z,5.97
2018-11-26T09:42:38.871Z,5.10
2018-11-26T09:45:13.882Z,5.30
2018-11-26T09:47:46.273Z,5.70
2018-11-26T09:50:20.681Z,5.67
2018-11-26T09:52:52.743Z,6.22
2018-11-26T09:55:24.994Z,4.83
2018-11-26T09:57:57.702Z,6.65
2018-11-26T10:00:29.935Z,7.20
2018-11-26T10:03:02.343Z,5.65
2018-11-26T10:05:34.441Z,7.62
2018-11-26T10:08:07.700Z,5.17
2018-11-26T10:10:40.064Z,4.92
2018-11-26T10:13:12.378Z,5.92
2018-11-26T10:15:44.596Z,5.70
2018-11-26T10:18:17.288Z,7.67
2018-11-26T10:20:49.513Z,5.85
2018-11-26T10:23:22.096Z,5.90
2018-11-26T10:25:54.604Z,6.70
2018-11-26T10:28:26.789Z,6.63
2018-11-26T10:30:59.277Z,4.97
2018-11-26T10:33:31.520Z,5.90
2018-11-26T10:36:03.889Z,4.87
2018-11-26T10:38:36.408Z,9.93
2018-11-26T10:41:09.198Z,6.33
2018-11-26T10:43:41.210Z,5.92
2018-11-26T10:46:13.641Z,4.93
2018-11-26T10:48:46.073Z,6.00
2018-11-26T10:51:18.167Z,6.72
2018-11-26T10:53:50.808Z,6.60
2018-11-26T10:56:23.127Z,5.72
2018-11-26T10:58:55.331Z,5.33
2018-11-26T11:01:33.750Z,5.47
2018-11-26T11:04:06.148Z,12.82
2018-11-26T11:06:38.556Z,5.65
2018-11-26T11:09:11.192Z,4.97
2018-11-26T11:11:43.489Z,4.73
2018-11-26T11:14:16.364Z,7.05
2018-11-26T11:16:48.849Z,6.95
2018-11-26T11:19:21.995Z,8.65
2018-11-26T11:21:54.389Z,7.43
2018-11-26T11:24:27.224Z,7.28
2018-11-26T11:26:59.594Z,6.60
2018-11-26T11:29:31.989Z,5.65
2018-11-26T11:32:04.095Z,5.20
2018-11-26T11:34:36.723Z,6.60
2018-11-26T11:37:09.265Z,5.70
2018-11-26T11:39:41.367Z,8.48
2018-11-26T11:42:13.759Z,7.92
2018-11-26T11:44:46.110Z,6.47
2018-11-26T11:47:18.100Z,6.83
2018-11-26T11:49:50.627Z,6.00
2018-11-26T11:52:23.039Z,7.03
2018-11-26T11:54:55.235Z,5.85
2018-11-26T11:57:27.811Z,6.10
2018-11-26T12:00:00.377Z,5.95
2018-11-26T12:02:37.111Z,5.67
2018-11-26T12:05:10.880Z,8.13
2018-11-26T12:07:43.307Z,8.73
2018-11-26T12:10:15.635Z,6.08
2018-11-26T12:12:47.981Z,5.80
2018-11-26T12:15:20.560Z,5.93
2018-11-26T12:17:52.945Z,9.88
2018-11-26T12:20:25.773Z,13.63
2018-11-26T12:22:58.036Z,18.10
2018-11-26T12:25:30.734Z,18.67
2018-11-26T12:28:03.060Z,22.32
2018-11-26T12:30:36.579Z,18.87
2018-11-26T12:33:09.077Z,20.08
2018-11-26T12:35:41.317Z,18.07
2018-11-26T12:38:14.016Z,18.65
2018-11-26T12:40:46.367Z,19.77
2018-11-26T12:43:18.778Z,16.05
2018-11-26T12:45:51.123Z,14.20
2018-11-26T12:48:23.206Z,17.32
2018-11-26T12:50:55.641Z,14.43
2018-11-26T12:53:28.000Z,10.65
2018-11-26T12:56:00.160Z,7.08
2018-11-26T12:58:32.752Z,6.42
2018-11-26T13:01:05.654Z,7.70
2018-11-26T13:03:38.312Z,7.33
2018-11-26T13:06:10.728Z,7.20
2018-11-26T13:08:43.071Z,7.47
2018-11-26T13:11:15.187Z,7.58
2018-11-26T13:13:48.007Z,7.25
2018-11-26T13:16:20.793Z,7.92
2018-11-26T13:18:53.571Z,10.28
2018-11-26T13:21:26.469Z,9.73
2018-11-26T13:23:58.971Z,10.05
2018-11-26T13:26:31.204Z,11.28
2018-11-26T13:29:03.635Z,10.45
2018-11-26T13:31:35.992Z,12.90
2018-11-26T13:34:08.832Z,13.18
2018-11-26T13:36:41.376Z,12.75
2018-11-26T13:39:13.996Z,15.13
2018-11-26T13:41:45.968Z,13.40
2018-11-26T13:44:18.151Z,14.38
2018-11-26T13:46:50.349Z,14.18
2018-11-26T13:49:22.833Z,15.32
2018-11-26T13:51:55.576Z,18.60
2018-11-26T13:54:28.120Z,12.93
2018-11-26T13:57:00.490Z,12.28
2018-11-26T13:59:33.165Z,7.22
2018-11-26T14:02:05.582Z,7.30
2018-11-26T14:04:37.602Z,7.78
2018-11-26T14:07:09.984Z,6.00
2018-11-26T14:09:42.596Z,6.40
2018-11-26T14:12:15.160Z,6.78
2018-11-26T14:14:51.565Z,6.50
2018-11-26T14:17:19.903Z,6.53
2018-11-26T14:19:51.985Z,5.90
2018-11-26T14:22:24.369Z,8.80
2018-11-26T14:24:56.772Z,6.43
2018-11-26T14:27:28.918Z,6.93
2018-11-26T14:30:01.049Z,8.57
2018-11-26T14:32:33.564Z,9.45
2018-11-26T14:35:06.000Z,6.10
2018-11-26T14:37:38.479Z,7.43
2018-11-26T14:40:13.667Z,7.80
2018-11-26T14:42:45.809Z,7.13
2018-11-26T14:45:18.797Z,6.60
2018-11-26T14:47:51.095Z,7.83
2018-11-26T14:50:23.697Z,9.73
2018-11-26T14:52:56.456Z,6.97
2018-11-26T14:55:29.948Z,8.27
2018-11-26T14:58:02.951Z,7.40
2018-11-26T15:00:35.709Z,7.70
2018-11-26T15:03:09.148Z,7.63
2018-11-26T15:05:41.203Z,9.10
2018-11-26T15:08:13.565Z,7.20
2018-11-26T15:10:46.134Z,7.03
2018-11-26T15:13:18.815Z,6.10
2018-11-26T15:15:51.319Z,10.43
2018-11-26T15:18:23.536Z,10.00
2018-11-26T15:20:56.105Z,7.60
2018-11-26T15:23:28.531Z,8.30
2018-11-26T15:26:01.066Z,7.50
2018-11-26T15:28:33.426Z,7.08
2018-11-26T15:31:06.291Z,10.43
2018-11-26T15:33:38.592Z,9.30
2018-11-26T15:36:10.965Z,7.67
2018-11-26T15:38:43.375Z,10.13
2018-11-26T15:41:16.118Z,8.03
2018-11-26T15:43:48.499Z,8.57
2018-11-26T15:46:21.046Z,9.43
2018-11-26T15:48:53.696Z,6.90
2018-11-26T15:51:26.168Z,7.95
2018-11-26T15:53:57.938Z,8.47
2018-11-26T15:56:30.383Z,8.60
2018-11-26T15:59:02.549Z,7.17
2018-11-26T16:01:35.125Z,7.87
2018-11-26T16:04:07.741Z,8.20
2018-11-26T16:06:39.889Z,8.00
2018-11-26T16:09:13.298Z,7.85
2018-11-26T16:11:45.350Z,8.13
2018-11-26T16:14:17.730Z,8.30
2018-11-26T16:16:50.026Z,6.83
2018-11-26T16:19:22.192Z,9.15
2018-11-26T16:21:54.615Z,7.60
2018-11-26T16:24:27.421Z,8.13
2018-11-26T16:26:59.794Z,9.40
2018-11-26T16:29:32.289Z,7.93
2018-11-26T16:32:04.548Z,7.70
2018-11-26T16:34:36.941Z,8.73
2018-11-26T16:37:09.523Z,8.20
2018-11-26T16:39:41.921Z,7.58
2018-11-26T16:42:14.361Z,6.70
2018-11-26T16:44:46.959Z,7.13
2018-11-26T16:47:19.526Z,8.13
2018-11-26T16:49:51.831Z,8.65
2018-11-26T16:52:24.267Z,8.53
2018-11-26T16:54:56.631Z,7.30
2018-11-26T16:57:28.869Z,7.30
2018-11-26T17:00:01.096Z,7.23
2018-11-26T17:02:33.368Z,8.67
2018-11-26T17:05:05.825Z,7.60
2018-11-26T17:07:38.040Z,7.40
2018-11-26T17:10:11.204Z,7.83
2018-11-26T17:12:43.473Z,8.03
2018-11-26T17:15:17.265Z,7.50
2018-11-26T17:17:49.731Z,7.47
2018-11-26T17:20:22.025Z,7.37
2018-11-26T17:22:54.032Z,7.93
2018-11-26T17:25:26.621Z,8.37
2018-11-26T17:27:59.317Z,9.45
2018-11-26T17:30:31.789Z,6.83
2018-11-26T17:33:05.032Z,8.90
2018-11-26T17:35:37.303Z,6.90
2018-11-26T17:38:09.923Z,6.73
2018-11-26T17:40:42.541Z,7.80
2018-11-26T17:43:16.493Z,8.43
2018-11-26T17:45:48.609Z,7.30
2018-11-26T17:48:20.687Z,9.10
2018-11-26T17:50:52.759Z,6.80
2018-11-26T17:53:25.238Z,8.40
2018-11-26T17:55:58.768Z,6.70
2018-11-26T17:58:32.016Z,7.53
2018-11-26T18:01:16.748Z,7.63
2018-11-26T18:03:49.035Z,8.90
2018-11-26T18:06:21.140Z,7.77
2018-11-26T18:08:53.313Z,6.50
2018-11-26T18:11:26.005Z,8.93
2018-11-26T18:13:58.107Z,6.80
2018-11-26T18:16:30.632Z,6.90
2018-11-26T18:19:03.011Z,7.27
2018-11-26T18:21:35.672Z,7.63
2018-11-26T18:24:08.074Z,7.90
2018-11-26T18:26:40.630Z,6.57
2018-11-26T18:29:13.048Z,7.70
2018-11-26T18:31:45.209Z,6.87
2018-11-26T18:34:17.465Z,5.80
2018-11-26T18:36:50.034Z,8.47
2018-11-26T18:39:22.457Z,8.47
2018-11-26T18:41:54.510Z,7.77
2018-11-26T18:44:27.768Z,7.13
2018-11-26T18:47:00.101Z,7.00
2018-11-26T18:49:32.487Z,5.93
2018-11-26T18:52:04.618Z,7.47
2018-11-26T18:54:36.963Z,7.27
2018-11-26T18:57:09.003Z,6.10
2018-11-26T18:59:41.246Z,5.77
2018-11-26T19:02:13.501Z,8.03
2018-11-26T19:04:46.014Z,9.60
2018-11-26T19:07:18.045Z,7.80
2018-11-26T19:09:50.549Z,7.07
2018-11-26T19:12:22.886Z,5.63
2018-11-26T19:14:55.322Z,7.33
2018-11-26T19:17:27.842Z,7.62
2018-11-26T19:20:00.284Z,8.50
2018-11-26T19:22:32.741Z,7.40
2018-11-26T19:25:04.661Z,7.17
2018-11-26T19:27:37.483Z,7.13
2018-11-26T19:30:13.901Z,7.27
2018-11-26T19:32:46.745Z,7.78
2018-11-26T19:35:19.298Z,7.65
2018-11-26T19:37:51.789Z,7.27
2018-11-26T19:40:24.002Z,9.00
2018-11-26T19:42:56.389Z,7.23
2018-11-26T19:45:29.164Z,7.43
2018-11-26T19:48:01.701Z,5.40
2018-11-26T19:50:33.877Z,6.90
2018-11-26T19:53:06.387Z,6.70
2018-11-26T19:55:38.633Z,7.63
2018-11-26T19:58:11.564Z,8.13
2018-11-26T20:00:43.935Z,7.00
2018-11-26T20:03:19.018Z,8.50
2018-11-26T20:06:01.901Z,7.33
2018-11-26T20:08:33.999Z,6.37
2018-11-26T20:11:06.839Z,7.73
2018-11-26T20:13:39.341Z,7.60
2018-11-26T20:16:22.847Z,7.17
2018-11-26T20:18:55.379Z,8.07
2018-11-26T20:21:28.147Z,9.80
2018-11-26T20:24:00.526Z,9.70
2018-11-26T20:26:32.967Z,6.20
2018-11-26T20:31:25.267Z,8.43
2018-11-26T20:33:57.355Z,5.83
2018-11-26T20:36:29.831Z,7.30
2018-11-26T20:39:02.257Z,7.60
2018-11-26T20:41:34.594Z,7.30
2018-11-26T20:44:06.847Z,5.30
2018-11-26T20:46:39.476Z,5.93
2018-11-26T20:49:21.601Z,7.17
2018-11-26T20:51:54.183Z,8.63
2018-11-26T20:54:26.540Z,10.70
2018-11-26T20:56:58.998Z,7.10
2018-11-26T20:59:31.315Z,9.13
2018-11-26T21:02:03.646Z,8.40
2018-11-26T21:04:36.383Z,7.13
2018-11-26T21:07:08.607Z,7.57
2018-11-26T21:09:40.973Z,6.67
2018-11-26T21:12:13.173Z,5.50
2018-11-26T21:14:45.407Z,5.07
2018-11-26T21:17:17.513Z,6.13
2018-11-26T21:19:49.989Z,5.70
2018-11-26T21:22:23.152Z,6.40
2018-11-26T21:24:55.432Z,6.37
2018-11-26T21:27:28.119Z,7.47
2018-11-26T21:30:00.601Z,7.00
2018-11-26T21:32:33.225Z,7.20
2018-11-26T21:35:05.641Z,9.73
2018-11-26T21:37:38.151Z,6.80
2018-11-26T21:40:12.260Z,5.77
2018-11-26T21:42:44.658Z,5.57
2018-11-26T21:46:19.602Z,5.80
2018-11-26T21:48:52.187Z,6.90
2018-11-26T21:51:24.961Z,6.23
2018-11-26T21:53:57.120Z,5.30
2018-11-26T21:56:29.635Z,7.70
2018-11-26T21:59:01.937Z,6.23
2018-11-26T22:01:34.214Z,8.40
2018-11-26T22:04:06.345Z,5.67
2018-11-26T22:06:38.759Z,13.00
2018-11-26T22:09:12.299Z,7.10
2018-11-26T22:11:44.679Z,7.17
2018-11-26T22:14:17.102Z,8.00
2018-11-26T22:16:49.222Z,6.97
2018-11-26T22:19:21.763Z,7.00
2018-11-26T22:21:53.924Z,6.10
2018-11-26T22:24:26.160Z,5.80
2018-11-26T22:26:58.401Z,6.47
2018-11-26T22:29:31.148Z,6.50
2018-11-26T22:32:03.765Z,8.77
2018-11-26T22:34:36.043Z,8.57
2018-11-26T22:37:08.619Z,8.27
2018-11-26T22:39:40.813Z,6.60
2018-11-26T22:42:13.101Z,8.97
2018-11-26T22:44:45.764Z,9.00
2018-11-26T22:47:18.158Z,8.10
2018-11-26T22:49:50.514Z,8.63
2018-11-26T22:52:23.078Z,6.60
2018-11-26T22:54:55.435Z,6.87
2018-11-26T22:57:27.898Z,7.17
2018-11-26T23:00:00.035Z,8.43
2018-11-26T23:02:32.586Z,8.43
2018-11-26T23:05:05.029Z,11.40
2018-11-26T23:07:37.108Z,9.67
2018-11-26T23:10:10.780Z,9.13
2018-11-26T23:12:42.920Z,10.90
2018-11-26T23:15:17.631Z,8.07
2018-11-26T23:17:50.266Z,10.83
2018-11-26T23:20:22.709Z,6.30
2018-11-26T23:22:55.219Z,7.43
2018-11-26T23:25:27.820Z,8.13
2018-11-26T23:28:00.318Z,8.40
2018-11-26T23:30:33.046Z,8.40
2018-11-26T23:33:06.603Z,7.27
2018-11-26T23:35:39.007Z,7.97
2018-11-26T23:38:11.844Z,7.70
2018-11-26T23:40:44.307Z,11.30
2018-11-26T23:43:16.558Z,8.43
2018-11-26T23:45:49.151Z,8.53
2018-11-26T23:48:21.565Z,15.83
2018-11-26T23:50:53.900Z,10.80
2018-11-26T23:53:26.234Z,9.07
2018-11-26T23:55:58.605Z,10.17
2018-11-26T23:58:30.999Z,10.10
